sensor_id;sensor_type;location;lat;lon;timestamp;P1;durP1;ratioP1;P2;durP2;ratioP2
76548;SDS011;65391;52.068;4.542;2023-11-22T00:01:20;12.8;;;5.8;;
76548;SDS011;65391;52.068;4.542;2023-11-22T00:03:45;12.8;;;5.8;;
76548;SDS011;65391;52.068;4.542;2023-11-22T00:06:10;12.8;;;5.8;;
76548;SDS011;65391;52.068;4.542;2023-11-22T00:08:35;12.8;;;5.8;;
76548;SDS011;65391;52.068;4.542;2023-11-22T00:11:00;13.1;;;5.6;;
76548;SDS011;65391;52.068;4.542;2023-11-22T00:13:25;13.1;;;5.6;;
76548;SDS011;65391;52.068;4.542;2023-11-22T00:15:50;13.1;;;5.6;;
76548;SDS011;65391;52.068;4.542;2023-11-22T00:18:15;13.1;;;5.6;;
76548;SDS011;65391;52.068;4.542;2023-11-22T00:20:40;11.8;;;5.8;;
76548;SDS011;65391;52.068;4.542;2023-11-22T00:23:05;11.8;;;5.8;;
76548;SDS011;65391;52.068;4.542;2023-11-22T00:25:30;11.8;;;5.8;;
76548;SDS011;65391;52.068;4.542;2023-11-22T00:27:55;11.8;;;5.8;;
76548;SDS011;65391;52.068;4.542;2023-11-22T00:30:20;10;;;5.2;;
76548;SDS011;65391;52.068;4.542;2023-11-22T00:32:45;10;;;5.2;;
76548;SDS011;65391;52.068;4.542;2023-11-22T00:35:10;10;;;5.2;;
76548;SDS011;65391;52.068;4.542;2023-11-22T00:37:35;10;;;5.2;;
76548;SDS011;65391;52.068;4.542;2023-11-22T00:40:00;11.1;;;5.2;;
76548;SDS011;65391;52.068;4.542;2023-11-22T00:42:25;11.1;;;5.2;;
76548;SDS011;65391;52.068;4.542;2023-11-22T00:44:50;11.1;;;5.2;;
76548;SDS011;65391;52.068;4.542;2023-11-22T00:47:15;11.1;;;5.2;;
76548;SDS011;65391;52.068;4.542;2023-11-22T00:49:40;11.9;;;5.5;;
76548;SDS011;65391;52.068;4.542;2023-11-22T00:52:05;11.9;;;5.5;;
76548;SDS011;65391;52.068;4.542;2023-11-22T00:54:30;11.9;;;5.5;;
76548;SDS011;65391;52.068;4.542;2023-11-22T00:56:55;11.9;;;5.5;;
76548;SDS011;65391;52.068;4.542;2023-11-22T00:59:20;11.7;;;5.9;;
76548;SDS011;65391;52.068;4.542;2023-11-22T01:01:45;11.7;;;5.9;;
76548;SDS011;65391;52.068;4.542;2023-11-22T01:04:10;11.7;;;5.9;;
76548;SDS011;65391;52.068;4.542;2023-11-22T01:06:35;11.7;;;5.9;;
76548;SDS011;65391;52.068;4.542;2023-11-22T01:09:00;11.7;;;5.9;;
76548;SDS011;65391;52.068;4.542;2023-11-22T01:11:25;9.8;;;5.3;;
76548;SDS011;65391;52.068;4.542;2023-11-22T01:13:50;9.8;;;5.3;;
76548;SDS011;65391;52.068;4.542;2023-11-22T01:16:15;9.8;;;5.3;;
76548;SDS011;65391;52.068;4.542;2023-11-22T01:18:40;9.8;;;5.3;;
76548;SDS011;65391;52.068;4.542;2023-11-22T01:21:05;11.2;;;5.5;;
76548;SDS011;65391;52.068;4.542;2023-11-22T01:23:30;11.2;;;5.5;;
76548;SDS011;65391;52.068;4.542;2023-11-22T01:25:55;11.2;;;5.5;;
76548;SDS011;65391;52.068;4.542;2023-11-22T01:28:20;11.2;;;5.5;;
76548;SDS011;65391;52.068;4.542;2023-11-22T01:30:45;13.1;;;6.1;;
76548;SDS011;65391;52.068;4.542;2023-11-22T01:33:10;13.1;;;6.1;;
76548;SDS011;65391;52.068;4.542;2023-11-22T01:35:35;13.1;;;6.1;;
76548;SDS011;65391;52.068;4.542;2023-11-22T01:38:00;13.1;;;6.1;;
76548;SDS011;65391;52.068;4.542;2023-11-22T01:40:25;11.4;;;5.5;;
76548;SDS011;65391;52.068;4.542;2023-11-22T01:42:50;11.4;;;5.5;;
76548;SDS011;65391;52.068;4.542;2023-11-22T01:45:15;11.4;;;5.5;;
76548;SDS011;65391;52.068;4.542;2023-11-22T01:47:40;11.4;;;5.5;;
76548;SDS011;65391;52.068;4.542;2023-11-22T01:50:06;11.7;;;5.8;;
76548;SDS011;65391;52.068;4.542;2023-11-22T01:52:30;11.7;;;5.8;;
76548;SDS011;65391;52.068;4.542;2023-11-22T01:54:55;11.7;;;5.8;;
76548;SDS011;65391;52.068;4.542;2023-11-22T01:57:20;11.7;;;5.8;;
76548;SDS011;65391;52.068;4.542;2023-11-22T01:59:45;13.2;;;6.3;;
76548;SDS011;65391;52.068;4.542;2023-11-22T02:02:10;13.2;;;6.3;;
76548;SDS011;65391;52.068;4.542;2023-11-22T02:04:35;13.2;;;6.3;;
76548;SDS011;65391;52.068;4.542;2023-11-22T02:07:00;13.2;;;6.3;;
76548;SDS011;65391;52.068;4.542;2023-11-22T02:09:25;11.1;;;6;;
76548;SDS011;65391;52.068;4.542;2023-11-22T02:11:50;11.1;;;6;;
76548;SDS011;65391;52.068;4.542;2023-11-22T02:14:15;11.1;;;6;;
76548;SDS011;65391;52.068;4.542;2023-11-22T02:16:40;11.1;;;6;;
76548;SDS011;65391;52.068;4.542;2023-11-22T02:19:05;11.1;;;6;;
76548;SDS011;65391;52.068;4.542;2023-11-22T02:21:30;12.4;;;6.2;;
76548;SDS011;65391;52.068;4.542;2023-11-22T02:23:55;12.4;;;6.2;;
76548;SDS011;65391;52.068;4.542;2023-11-22T02:26:20;12.4;;;6.2;;
76548;SDS011;65391;52.068;4.542;2023-11-22T02:28:45;12.4;;;6.2;;
76548;SDS011;65391;52.068;4.542;2023-11-22T02:31:10;12.2;;;5.9;;
76548;SDS011;65391;52.068;4.542;2023-11-22T02:33:35;12.2;;;5.9;;
76548;SDS011;65391;52.068;4.542;2023-11-22T02:36:01;12.2;;;5.9;;
76548;SDS011;65391;52.068;4.542;2023-11-22T02:38:25;12.2;;;5.9;;
76548;SDS011;65391;52.068;4.542;2023-11-22T02:40:50;12.6;;;5.5;;
76548;SDS011;65391;52.068;4.542;2023-11-22T02:43:15;12.6;;;5.5;;
76548;SDS011;65391;52.068;4.542;2023-11-22T02:45:40;12.6;;;5.5;;
76548;SDS011;65391;52.068;4.542;2023-11-22T02:48:05;12.6;;;5.5;;
76548;SDS011;65391;52.068;4.542;2023-11-22T02:50:30;11.3;;;5;;
76548;SDS011;65391;52.068;4.542;2023-11-22T02:52:55;11.3;;;5;;
76548;SDS011;65391;52.068;4.542;2023-11-22T02:55:20;11.3;;;5;;
76548;SDS011;65391;52.068;4.542;2023-11-22T02:57:45;11.3;;;5;;
76548;SDS011;65391;52.068;4.542;2023-11-22T03:00:11;13.6;;;6;;
76548;SDS011;65391;52.068;4.542;2023-11-22T03:02:35;13.6;;;6;;
76548;SDS011;65391;52.068;4.542;2023-11-22T03:05:00;13.6;;;6;;
76548;SDS011;65391;52.068;4.542;2023-11-22T03:07:25;13.6;;;6;;
76548;SDS011;65391;52.068;4.542;2023-11-22T03:09:50;13;;;6.4;;
76548;SDS011;65391;52.068;4.542;2023-11-22T03:12:15;13;;;6.4;;
76548;SDS011;65391;52.068;4.542;2023-11-22T03:14:40;13;;;6.4;;
76548;SDS011;65391;52.068;4.542;2023-11-22T03:17:05;13;;;6.4;;
76548;SDS011;65391;52.068;4.542;2023-11-22T03:19:30;12.8;;;6.1;;
76548;SDS011;65391;52.068;4.542;2023-11-22T03:21:55;12.8;;;6.1;;
76548;SDS011;65391;52.068;4.542;2023-11-22T03:24:20;12.8;;;6.1;;
76548;SDS011;65391;52.068;4.542;2023-11-22T03:26:45;12.8;;;6.1;;
76548;SDS011;65391;52.068;4.542;2023-11-22T03:29:10;12.8;;;6.1;;
76548;SDS011;65391;52.068;4.542;2023-11-22T03:31:35;11.8;;;5.6;;
76548;SDS011;65391;52.068;4.542;2023-11-22T03:34:00;11.8;;;5.6;;
76548;SDS011;65391;52.068;4.542;2023-11-22T03:36:25;11.8;;;5.6;;
76548;SDS011;65391;52.068;4.542;2023-11-22T03:38:50;11.8;;;5.6;;
76548;SDS011;65391;52.068;4.542;2023-11-22T03:41:15;13.3;;;6.5;;
76548;SDS011;65391;52.068;4.542;2023-11-22T03:43:40;13.3;;;6.5;;
76548;SDS011;65391;52.068;4.542;2023-11-22T03:46:05;13.3;;;6.5;;
76548;SDS011;65391;52.068;4.542;2023-11-22T03:48:30;13.3;;;6.5;;
76548;SDS011;65391;52.068;4.542;2023-11-22T03:50:56;10.4;;;4.8;;
76548;SDS011;65391;52.068;4.542;2023-11-22T03:53:20;10.4;;;4.8;;
76548;SDS011;65391;52.068;4.542;2023-11-22T03:55:45;10.4;;;4.8;;
76548;SDS011;65391;52.068;4.542;2023-11-22T03:58:10;10.4;;;4.8;;
76548;SDS011;65391;52.068;4.542;2023-11-22T04:00:36;10.1;;;4.6;;
76548;SDS011;65391;52.068;4.542;2023-11-22T04:03:00;10.1;;;4.6;;
76548;SDS011;65391;52.068;4.542;2023-11-22T04:05:25;10.1;;;4.6;;
76548;SDS011;65391;52.068;4.542;2023-11-22T04:07:50;10.1;;;4.6;;
76548;SDS011;65391;52.068;4.542;2023-11-22T04:10:15;12.3;;;6;;
76548;SDS011;65391;52.068;4.542;2023-11-22T04:12:40;12.3;;;6;;
76548;SDS011;65391;52.068;4.542;2023-11-22T04:15:06;12.3;;;6;;
76548;SDS011;65391;52.068;4.542;2023-11-22T04:17:30;12.3;;;6;;
76548;SDS011;65391;52.068;4.542;2023-11-22T04:19:55;11.3;;;6;;
76548;SDS011;65391;52.068;4.542;2023-11-22T04:22:20;11.3;;;6;;
76548;SDS011;65391;52.068;4.542;2023-11-22T04:24:45;11.3;;;6;;
76548;SDS011;65391;52.068;4.542;2023-11-22T04:27:10;11.3;;;6;;
76548;SDS011;65391;52.068;4.542;2023-11-22T04:29:35;12.4;;;6.3;;
76548;SDS011;65391;52.068;4.542;2023-11-22T04:32:00;12.4;;;6.3;;
76548;SDS011;65391;52.068;4.542;2023-11-22T04:34:25;12.4;;;6.3;;
76548;SDS011;65391;52.068;4.542;2023-11-22T04:36:50;12.4;;;6.3;;
76548;SDS011;65391;52.068;4.542;2023-11-22T04:39:15;12.4;;;6.3;;
76548;SDS011;65391;52.068;4.542;2023-11-22T04:41:40;12;;;5.9;;
76548;SDS011;65391;52.068;4.542;2023-11-22T04:44:05;12;;;5.9;;
76548;SDS011;65391;52.068;4.542;2023-11-22T04:46:30;12;;;5.9;;
76548;SDS011;65391;52.068;4.542;2023-11-22T04:48:55;12;;;5.9;;
76548;SDS011;65391;52.068;4.542;2023-11-22T04:51:20;12;;;6.2;;
76548;SDS011;65391;52.068;4.542;2023-11-22T04:53:45;12;;;6.2;;
76548;SDS011;65391;52.068;4.542;2023-11-22T04:56:10;12;;;6.2;;
76548;SDS011;65391;52.068;4.542;2023-11-22T04:58:35;12;;;6.2;;
76548;SDS011;65391;52.068;4.542;2023-11-22T05:01:00;13.5;;;6.3;;
76548;SDS011;65391;52.068;4.542;2023-11-22T05:03:25;13.5;;;6.3;;
76548;SDS011;65391;52.068;4.542;2023-11-22T05:05:50;13.5;;;6.3;;
76548;SDS011;65391;52.068;4.542;2023-11-22T05:08:15;13.5;;;6.3;;
76548;SDS011;65391;52.068;4.542;2023-11-22T05:10:40;12.7;;;6.6;;
76548;SDS011;65391;52.068;4.542;2023-11-22T05:13:05;12.7;;;6.6;;
76548;SDS011;65391;52.068;4.542;2023-11-22T05:15:30;12.7;;;6.6;;
76548;SDS011;65391;52.068;4.542;2023-11-22T05:17:55;12.7;;;6.6;;
76548;SDS011;65391;52.068;4.542;2023-11-22T05:20:20;14.6;;;6.9;;
76548;SDS011;65391;52.068;4.542;2023-11-22T05:22:45;14.6;;;6.9;;
76548;SDS011;65391;52.068;4.542;2023-11-22T05:25:10;14.6;;;6.9;;
76548;SDS011;65391;52.068;4.542;2023-11-22T05:27:35;14.6;;;6.9;;
76548;SDS011;65391;52.068;4.542;2023-11-22T05:30:00;15.1;;;7.7;;
76548;SDS011;65391;52.068;4.542;2023-11-22T05:32:25;15.1;;;7.7;;
76548;SDS011;65391;52.068;4.542;2023-11-22T05:34:50;15.1;;;7.7;;
76548;SDS011;65391;52.068;4.542;2023-11-22T05:37:15;15.1;;;7.7;;
76548;SDS011;65391;52.068;4.542;2023-11-22T05:39:40;14.3;;;7.2;;
76548;SDS011;65391;52.068;4.542;2023-11-22T05:42:06;14.3;;;7.2;;
76548;SDS011;65391;52.068;4.542;2023-11-22T05:44:30;14.3;;;7.2;;
76548;SDS011;65391;52.068;4.542;2023-11-22T05:46:55;14.3;;;7.2;;
76548;SDS011;65391;52.068;4.542;2023-11-22T05:49:20;14.3;;;7.2;;
76548;SDS011;65391;52.068;4.542;2023-11-22T05:51:45;14.7;;;7.3;;
76548;SDS011;65391;52.068;4.542;2023-11-22T05:54:10;14.7;;;7.3;;
76548;SDS011;65391;52.068;4.542;2023-11-22T05:56:35;14.7;;;7.3;;
76548;SDS011;65391;52.068;4.542;2023-11-22T05:59:00;14.7;;;7.3;;
76548;SDS011;65391;52.068;4.542;2023-11-22T06:01:25;15.3;;;7.7;;
76548;SDS011;65391;52.068;4.542;2023-11-22T06:03:50;15.3;;;7.7;;
76548;SDS011;65391;52.068;4.542;2023-11-22T06:06:15;15.3;;;7.7;;
76548;SDS011;65391;52.068;4.542;2023-11-22T06:08:40;15.3;;;7.7;;
76548;SDS011;65391;52.068;4.542;2023-11-22T06:11:05;14.6;;;7.5;;
76548;SDS011;65391;52.068;4.542;2023-11-22T06:13:30;14.6;;;7.5;;
76548;SDS011;65391;52.068;4.542;2023-11-22T06:15:55;14.6;;;7.5;;
76548;SDS011;65391;52.068;4.542;2023-11-22T06:18:20;14.6;;;7.5;;
76548;SDS011;65391;52.068;4.542;2023-11-22T06:20:45;13.2;;;6.9;;
76548;SDS011;65391;52.068;4.542;2023-11-22T06:23:10;13.2;;;6.9;;
76548;SDS011;65391;52.068;4.542;2023-11-22T06:25:36;13.2;;;6.9;;
76548;SDS011;65391;52.068;4.542;2023-11-22T06:28:00;13.2;;;6.9;;
76548;SDS011;65391;52.068;4.542;2023-11-22T06:30:25;12.9;;;6.1;;
76548;SDS011;65391;52.068;4.542;2023-11-22T06:32:50;12.9;;;6.1;;
76548;SDS011;65391;52.068;4.542;2023-11-22T06:35:15;12.9;;;6.1;;
76548;SDS011;65391;52.068;4.542;2023-11-22T06:37:40;12.9;;;6.1;;
76548;SDS011;65391;52.068;4.542;2023-11-22T06:40:06;14.9;;;7.4;;
76548;SDS011;65391;52.068;4.542;2023-11-22T06:42:30;14.9;;;7.4;;
76548;SDS011;65391;52.068;4.542;2023-11-22T06:44:55;14.9;;;7.4;;
76548;SDS011;65391;52.068;4.542;2023-11-22T06:47:20;14.9;;;7.4;;
76548;SDS011;65391;52.068;4.542;2023-11-22T06:49:45;14.7;;;7.5;;
76548;SDS011;65391;52.068;4.542;2023-11-22T06:52:10;14.7;;;7.5;;
76548;SDS011;65391;52.068;4.542;2023-11-22T06:54:35;14.7;;;7.5;;
76548;SDS011;65391;52.068;4.542;2023-11-22T06:57:00;14.7;;;7.5;;
76548;SDS011;65391;52.068;4.542;2023-11-22T06:59:25;14.7;;;7.5;;
76548;SDS011;65391;52.068;4.542;2023-11-22T07:01:50;14.3;;;7.1;;
76548;SDS011;65391;52.068;4.542;2023-11-22T07:04:15;14.3;;;7.1;;
76548;SDS011;65391;52.068;4.542;2023-11-22T07:06:40;14.3;;;7.1;;
76548;SDS011;65391;52.068;4.542;2023-11-22T07:09:05;14.3;;;7.1;;
76548;SDS011;65391;52.068;4.542;2023-11-22T07:11:30;15.8;;;7.9;;
76548;SDS011;65391;52.068;4.542;2023-11-22T07:13:55;15.8;;;7.9;;
76548;SDS011;65391;52.068;4.542;2023-11-22T07:16:20;15.8;;;7.9;;
76548;SDS011;65391;52.068;4.542;2023-11-22T07:18:45;15.8;;;7.9;;
76548;SDS011;65391;52.068;4.542;2023-11-22T07:21:10;16.7;;;8.8;;
76548;SDS011;65391;52.068;4.542;2023-11-22T07:23:35;16.7;;;8.8;;
76548;SDS011;65391;52.068;4.542;2023-11-22T07:26:00;16.7;;;8.8;;
76548;SDS011;65391;52.068;4.542;2023-11-22T07:28:26;16.7;;;8.8;;
76548;SDS011;65391;52.068;4.542;2023-11-22T07:30:50;15.9;;;8.2;;
76548;SDS011;65391;52.068;4.542;2023-11-22T07:33:15;15.9;;;8.2;;
76548;SDS011;65391;52.068;4.542;2023-11-22T07:35:40;15.9;;;8.2;;
76548;SDS011;65391;52.068;4.542;2023-11-22T07:38:05;15.9;;;8.2;;
76548;SDS011;65391;52.068;4.542;2023-11-22T07:40:30;15.2;;;7.9;;
76548;SDS011;65391;52.068;4.542;2023-11-22T07:42:55;15.2;;;7.9;;
76548;SDS011;65391;52.068;4.542;2023-11-22T07:45:20;15.2;;;7.9;;
76548;SDS011;65391;52.068;4.542;2023-11-22T07:47:45;15.2;;;7.9;;
76548;SDS011;65391;52.068;4.542;2023-11-22T07:50:10;16.1;;;8.5;;
76548;SDS011;65391;52.068;4.542;2023-11-22T07:52:35;16.1;;;8.5;;
76548;SDS011;65391;52.068;4.542;2023-11-22T07:55:00;16.1;;;8.5;;
76548;SDS011;65391;52.068;4.542;2023-11-22T07:57:25;16.1;;;8.5;;
76548;SDS011;65391;52.068;4.542;2023-11-22T07:59:50;16.9;;;9;;
76548;SDS011;65391;52.068;4.542;2023-11-22T08:02:15;16.9;;;9;;
76548;SDS011;65391;52.068;4.542;2023-11-22T08:04:40;16.9;;;9;;
76548;SDS011;65391;52.068;4.542;2023-11-22T08:07:05;16.9;;;9;;
76548;SDS011;65391;52.068;4.542;2023-11-22T08:09:30;16.9;;;9;;
76548;SDS011;65391;52.068;4.542;2023-11-22T08:11:55;15.4;;;7.4;;
76548;SDS011;65391;52.068;4.542;2023-11-22T08:14:21;15.4;;;7.4;;
76548;SDS011;65391;52.068;4.542;2023-11-22T08:16:45;15.4;;;7.4;;
76548;SDS011;65391;52.068;4.542;2023-11-22T08:19:10;15.4;;;7.4;;
76548;SDS011;65391;52.068;4.542;2023-11-22T08:21:35;15.2;;;7.5;;
76548;SDS011;65391;52.068;4.542;2023-11-22T08:24:00;15.2;;;7.5;;
76548;SDS011;65391;52.068;4.542;2023-11-22T08:26:25;15.2;;;7.5;;
76548;SDS011;65391;52.068;4.542;2023-11-22T08:28:50;15.2;;;7.5;;
76548;SDS011;65391;52.068;4.542;2023-11-22T08:31:15;16.4;;;8.4;;
76548;SDS011;65391;52.068;4.542;2023-11-22T08:33:40;16.4;;;8.4;;
76548;SDS011;65391;52.068;4.542;2023-11-22T08:36:06;16.4;;;8.4;;
76548;SDS011;65391;52.068;4.542;2023-11-22T08:38:30;16.4;;;8.4;;
76548;SDS011;65391;52.068;4.542;2023-11-22T08:40:55;16.4;;;8.1;;
76548;SDS011;65391;52.068;4.542;2023-11-22T08:43:20;16.4;;;8.1;;
76548;SDS011;65391;52.068;4.542;2023-11-22T08:45:45;16.4;;;8.1;;
76548;SDS011;65391;52.068;4.542;2023-11-22T08:48:10;16.4;;;8.1;;
76548;SDS011;65391;52.068;4.542;2023-11-22T08:50:35;16.4;;;8.9;;
76548;SDS011;65391;52.068;4.542;2023-11-22T08:53:00;16.4;;;8.9;;
76548;SDS011;65391;52.068;4.542;2023-11-22T08:55:25;16.4;;;8.9;;
76548;SDS011;65391;52.068;4.542;2023-11-22T08:57:50;16.4;;;8.9;;
76548;SDS011;65391;52.068;4.542;2023-11-22T09:00:16;17.2;;;9.3;;
76548;SDS011;65391;52.068;4.542;2023-11-22T09:02:40;17.2;;;9.3;;
76548;SDS011;65391;52.068;4.542;2023-11-22T09:05:06;17.2;;;9.3;;
76548;SDS011;65391;52.068;4.542;2023-11-22T09:07:30;17.2;;;9.3;;
76548;SDS011;65391;52.068;4.542;2023-11-22T09:09:55;17.4;;;9.1;;
76548;SDS011;65391;52.068;4.542;2023-11-22T09:12:20;17.4;;;9.1;;
76548;SDS011;65391;52.068;4.542;2023-11-22T09:14:45;17.4;;;9.1;;
76548;SDS011;65391;52.068;4.542;2023-11-22T09:17:10;17.4;;;9.1;;
76548;SDS011;65391;52.068;4.542;2023-11-22T09:19:35;17.4;;;9.1;;
76548;SDS011;65391;52.068;4.542;2023-11-22T09:22:00;18.9;;;9.6;;
76548;SDS011;65391;52.068;4.542;2023-11-22T09:24:25;18.9;;;9.6;;
76548;SDS011;65391;52.068;4.542;2023-11-22T09:26:50;18.9;;;9.6;;
76548;SDS011;65391;52.068;4.542;2023-11-22T09:29:15;18.9;;;9.6;;
76548;SDS011;65391;52.068;4.542;2023-11-22T09:31:40;20;;;10.5;;
76548;SDS011;65391;52.068;4.542;2023-11-22T09:34:05;20;;;10.5;;
76548;SDS011;65391;52.068;4.542;2023-11-22T09:36:30;20;;;10.5;;
76548;SDS011;65391;52.068;4.542;2023-11-22T09:38:56;20;;;10.5;;
76548;SDS011;65391;52.068;4.542;2023-11-22T09:41:20;20.1;;;10.9;;
76548;SDS011;65391;52.068;4.542;2023-11-22T09:43:45;20.1;;;10.9;;
76548;SDS011;65391;52.068;4.542;2023-11-22T09:46:10;20.1;;;10.9;;
76548;SDS011;65391;52.068;4.542;2023-11-22T09:48:35;20.1;;;10.9;;
76548;SDS011;65391;52.068;4.542;2023-11-22T09:51:03;21.3;;;11.4;;
76548;SDS011;65391;52.068;4.542;2023-11-22T09:53:31;21.3;;;11.4;;
76548;SDS011;65391;52.068;4.542;2023-11-22T09:55:50;21.3;;;11.4;;
76548;SDS011;65391;52.068;4.542;2023-11-22T09:58:16;21.3;;;11.4;;
76548;SDS011;65391;52.068;4.542;2023-11-22T10:00:40;21.2;;;11.4;;
76548;SDS011;65391;52.068;4.542;2023-11-22T10:03:05;21.2;;;11.4;;
76548;SDS011;65391;52.068;4.542;2023-11-22T10:05:30;21.2;;;11.4;;
76548;SDS011;65391;52.068;4.542;2023-11-22T10:07:55;21.2;;;11.4;;
76548;SDS011;65391;52.068;4.542;2023-11-22T10:10:20;21.9;;;11.9;;
76548;SDS011;65391;52.068;4.542;2023-11-22T10:12:45;21.9;;;11.9;;
76548;SDS011;65391;52.068;4.542;2023-11-22T10:15:12;21.9;;;11.9;;
76548;SDS011;65391;52.068;4.542;2023-11-22T10:17:35;21.9;;;11.9;;
76548;SDS011;65391;52.068;4.542;2023-11-22T10:20:01;21.9;;;11.9;;
76548;SDS011;65391;52.068;4.542;2023-11-22T10:22:25;22.3;;;11.9;;
76548;SDS011;65391;52.068;4.542;2023-11-22T10:24:50;22.3;;;11.9;;
76548;SDS011;65391;52.068;4.542;2023-11-22T10:27:15;22.3;;;11.9;;
76548;SDS011;65391;52.068;4.542;2023-11-22T10:29:40;22.3;;;11.9;;
76548;SDS011;65391;52.068;4.542;2023-11-22T10:32:06;23.1;;;12.5;;
76548;SDS011;65391;52.068;4.542;2023-11-22T10:34:30;23.1;;;12.5;;
76548;SDS011;65391;52.068;4.542;2023-11-22T10:36:55;23.1;;;12.5;;
76548;SDS011;65391;52.068;4.542;2023-11-22T10:39:21;23.1;;;12.5;;
76548;SDS011;65391;52.068;4.542;2023-11-22T10:41:46;23.5;;;12.8;;
76548;SDS011;65391;52.068;4.542;2023-11-22T10:44:10;23.5;;;12.8;;
76548;SDS011;65391;52.068;4.542;2023-11-22T10:46:35;23.5;;;12.8;;
76548;SDS011;65391;52.068;4.542;2023-11-22T10:49:00;23.5;;;12.8;;
76548;SDS011;65391;52.068;4.542;2023-11-22T10:51:26;19;;;10.1;;
76548;SDS011;65391;52.068;4.542;2023-11-22T10:53:50;19;;;10.1;;
76548;SDS011;65391;52.068;4.542;2023-11-22T10:56:16;19;;;10.1;;
76548;SDS011;65391;52.068;4.542;2023-11-22T10:58:45;19;;;10.1;;
76548;SDS011;65391;52.068;4.542;2023-11-22T11:01:05;19.2;;;10.8;;
76548;SDS011;65391;52.068;4.542;2023-11-22T11:03:31;19.2;;;10.8;;
76548;SDS011;65391;52.068;4.542;2023-11-22T11:05:57;19.2;;;10.8;;
76548;SDS011;65391;52.068;4.542;2023-11-22T11:08:21;19.2;;;10.8;;
76548;SDS011;65391;52.068;4.542;2023-11-22T11:10:46;22;;;10.7;;
76548;SDS011;65391;52.068;4.542;2023-11-22T11:13:11;22;;;10.7;;
76548;SDS011;65391;52.068;4.542;2023-11-22T11:15:36;22;;;10.7;;
76548;SDS011;65391;52.068;4.542;2023-11-22T11:18:00;22;;;10.7;;
76548;SDS011;65391;52.068;4.542;2023-11-22T11:20:25;17.9;;;10.5;;
76548;SDS011;65391;52.068;4.542;2023-11-22T11:22:50;17.9;;;10.5;;
76548;SDS011;65391;52.068;4.542;2023-11-22T11:25:16;17.9;;;10.5;;
76548;SDS011;65391;52.068;4.542;2023-11-22T11:27:40;17.9;;;10.5;;
76548;SDS011;65391;52.068;4.542;2023-11-22T11:30:40;17.9;;;10.5;;
76548;SDS011;65391;52.068;4.542;2023-11-22T11:32:31;14.5;;;8.7;;
76548;SDS011;65391;52.068;4.542;2023-11-22T11:34:55;14.5;;;8.7;;
76548;SDS011;65391;52.068;4.542;2023-11-22T11:37:20;14.5;;;8.7;;
76548;SDS011;65391;52.068;4.542;2023-11-22T11:39:46;14.5;;;8.7;;
76548;SDS011;65391;52.068;4.542;2023-11-22T11:42:11;16.8;;;9.3;;
76548;SDS011;65391;52.068;4.542;2023-11-22T11:44:36;16.8;;;9.3;;
76548;SDS011;65391;52.068;4.542;2023-11-22T11:47:08;16.8;;;9.3;;
76548;SDS011;65391;52.068;4.542;2023-11-22T11:49:25;16.8;;;9.3;;
76548;SDS011;65391;52.068;4.542;2023-11-22T11:51:51;20.2;;;9.9;;
76548;SDS011;65391;52.068;4.542;2023-11-22T11:54:16;20.2;;;9.9;;
76548;SDS011;65391;52.068;4.542;2023-11-22T11:56:41;20.2;;;9.9;;
76548;SDS011;65391;52.068;4.542;2023-11-22T11:59:06;20.2;;;9.9;;
76548;SDS011;65391;52.068;4.542;2023-11-22T12:01:31;17.1;;;10.2;;
76548;SDS011;65391;52.068;4.542;2023-11-22T12:03:56;17.1;;;10.2;;
76548;SDS011;65391;52.068;4.542;2023-11-22T12:06:21;17.1;;;10.2;;
76548;SDS011;65391;52.068;4.542;2023-11-22T12:08:46;17.1;;;10.2;;
76548;SDS011;65391;52.068;4.542;2023-11-22T12:11:11;15.8;;;9.5;;
76548;SDS011;65391;52.068;4.542;2023-11-22T12:13:36;15.8;;;9.5;;
76548;SDS011;65391;52.068;4.542;2023-11-22T12:16:01;15.8;;;9.5;;
76548;SDS011;65391;52.068;4.542;2023-11-22T12:18:26;15.8;;;9.5;;
76548;SDS011;65391;52.068;4.542;2023-11-22T12:20:54;17.6;;;9.9;;
76548;SDS011;65391;52.068;4.542;2023-11-22T12:23:16;17.6;;;9.9;;
76548;SDS011;65391;52.068;4.542;2023-11-22T12:25:41;17.6;;;9.9;;
76548;SDS011;65391;52.068;4.542;2023-11-22T12:28:06;17.6;;;9.9;;
76548;SDS011;65391;52.068;4.542;2023-11-22T12:30:31;14.2;;;8.4;;
76548;SDS011;65391;52.068;4.542;2023-11-22T12:32:56;14.2;;;8.4;;
76548;SDS011;65391;52.068;4.542;2023-11-22T12:35:21;14.2;;;8.4;;
76548;SDS011;65391;52.068;4.542;2023-11-22T12:37:46;14.2;;;8.4;;
76548;SDS011;65391;52.068;4.542;2023-11-22T12:40:11;14.2;;;8.4;;
76548;SDS011;65391;52.068;4.542;2023-11-22T12:42:46;11.4;;;7.5;;
76548;SDS011;65391;52.068;4.542;2023-11-22T12:45:01;11.4;;;7.5;;
76548;SDS011;65391;52.068;4.542;2023-11-22T12:47:33;11.4;;;7.5;;
76548;SDS011;65391;52.068;4.542;2023-11-22T12:49:51;11.4;;;7.5;;
76548;SDS011;65391;52.068;4.542;2023-11-22T12:52:16;12.8;;;7.1;;
76548;SDS011;65391;52.068;4.542;2023-11-22T12:54:41;12.8;;;7.1;;
76548;SDS011;65391;52.068;4.542;2023-11-22T12:57:10;12.8;;;7.1;;
76548;SDS011;65391;52.068;4.542;2023-11-22T12:59:31;12.8;;;7.1;;
76548;SDS011;65391;52.068;4.542;2023-11-22T13:01:56;13.6;;;7.9;;
76548;SDS011;65391;52.068;4.542;2023-11-22T13:04:21;13.6;;;7.9;;
76548;SDS011;65391;52.068;4.542;2023-11-22T13:06:46;13.6;;;7.9;;
76548;SDS011;65391;52.068;4.542;2023-11-22T13:09:11;13.6;;;7.9;;
76548;SDS011;65391;52.068;4.542;2023-11-22T13:11:36;12.9;;;8;;
76548;SDS011;65391;52.068;4.542;2023-11-22T13:14:01;12.9;;;8;;
76548;SDS011;65391;52.068;4.542;2023-11-22T13:16:26;12.9;;;8;;
76548;SDS011;65391;52.068;4.542;2023-11-22T13:18:51;12.9;;;8;;
76548;SDS011;65391;52.068;4.542;2023-11-22T13:21:16;14.5;;;8.3;;
76548;SDS011;65391;52.068;4.542;2023-11-22T13:23:41;14.5;;;8.3;;
76548;SDS011;65391;52.068;4.542;2023-11-22T13:26:06;14.5;;;8.3;;
76548;SDS011;65391;52.068;4.542;2023-11-22T13:28:31;14.5;;;8.3;;
76548;SDS011;65391;52.068;4.542;2023-11-22T13:30:56;15.9;;;8.6;;
76548;SDS011;65391;52.068;4.542;2023-11-22T13:33:21;15.9;;;8.6;;
76548;SDS011;65391;52.068;4.542;2023-11-22T13:35:46;15.9;;;8.6;;
76548;SDS011;65391;52.068;4.542;2023-11-22T13:38:11;15.9;;;8.6;;
76548;SDS011;65391;52.068;4.542;2023-11-22T13:40:36;15.8;;;9.4;;
76548;SDS011;65391;52.068;4.542;2023-11-22T13:43:01;15.8;;;9.4;;
76548;SDS011;65391;52.068;4.542;2023-11-22T13:45:26;15.8;;;9.4;;
76548;SDS011;65391;52.068;4.542;2023-11-22T13:47:51;15.8;;;9.4;;
76548;SDS011;65391;52.068;4.542;2023-11-22T13:50:16;15.8;;;9.4;;
76548;SDS011;65391;52.068;4.542;2023-11-22T13:52:41;16.7;;;10.1;;
76548;SDS011;65391;52.068;4.542;2023-11-22T13:55:06;16.7;;;10.1;;
76548;SDS011;65391;52.068;4.542;2023-11-22T13:57:31;16.7;;;10.1;;
76548;SDS011;65391;52.068;4.542;2023-11-22T13:59:56;16.7;;;10.1;;
76548;SDS011;65391;52.068;4.542;2023-11-22T14:02:21;17.9;;;9.7;;
76548;SDS011;65391;52.068;4.542;2023-11-22T14:04:46;17.9;;;9.7;;
76548;SDS011;65391;52.068;4.542;2023-11-22T14:07:11;17.9;;;9.7;;
76548;SDS011;65391;52.068;4.542;2023-11-22T14:09:36;17.9;;;9.7;;
76548;SDS011;65391;52.068;4.542;2023-11-22T14:12:01;14.2;;;9.4;;
76548;SDS011;65391;52.068;4.542;2023-11-22T14:14:26;14.2;;;9.4;;
76548;SDS011;65391;52.068;4.542;2023-11-22T14:16:51;14.2;;;9.4;;
76548;SDS011;65391;52.068;4.542;2023-11-22T14:19:16;14.2;;;9.4;;
76548;SDS011;65391;52.068;4.542;2023-11-22T14:21:41;18;;;10.3;;
76548;SDS011;65391;52.068;4.542;2023-11-22T14:24:06;18;;;10.3;;
76548;SDS011;65391;52.068;4.542;2023-11-22T14:26:31;18;;;10.3;;
76548;SDS011;65391;52.068;4.542;2023-11-22T14:28:56;18;;;10.3;;
76548;SDS011;65391;52.068;4.542;2023-11-22T14:31:21;19.2;;;10.3;;
76548;SDS011;65391;52.068;4.542;2023-11-22T14:33:46;19.2;;;10.3;;
76548;SDS011;65391;52.068;4.542;2023-11-22T14:36:11;19.2;;;10.3;;
76548;SDS011;65391;52.068;4.542;2023-11-22T14:38:36;19.2;;;10.3;;
76548;SDS011;65391;52.068;4.542;2023-11-22T14:41:01;19.2;;;11;;
76548;SDS011;65391;52.068;4.542;2023-11-22T14:43:26;19.2;;;11;;
76548;SDS011;65391;52.068;4.542;2023-11-22T14:45:51;19.2;;;11;;
76548;SDS011;65391;52.068;4.542;2023-11-22T14:48:16;19.2;;;11;;